Time;durP1;ratioP1;P1;durP2;ratioP2;P2;SDS_P1;SDS_P2;PMS_P1;PMS_P2;Temp;Humidity;BMP_temperature;BMP_pressure;BME280_temperature;BME280_humidity;BME280_pressure;Samples;Min_cycle;Max_cycle;Signal;HPM_P1;HPM_P2
2023/08/20 07:23:43;;;;;;;7.72;4.63;;;;;;;-145.79;75.84;77358.19;5334386;27;20395;-67
2023/08/20 07:26:15;;;;;;;8.48;4.82;;;;;;;-145.79;76.42;77360.31;5328463;27;20505;-69
2023/08/20 07:28:59;;;;;;;7.82;4.43;;;;;;;-145.79;75.95;77358.19;5331514;27;20023;-68
2023/08/20 07:31:33;;;;;;;9.63;4.85;;;;;;;-145.79;75.98;77339.13;5331636;28;20119;-68
2023/08/20 07:34:04;;;;;;;7.13;5.07;;;;;;;-145.79;75.66;77326.41;5333989;27;20019;-68
2023/08/20 07:36:36;;;;;;;7.93;4.32;;;;;;;-145.79;75.95;77313.69;5325187;27;20036;-68
2023/08/20 07:39:08;;;;;;;7.03;4.00;;;;;;;-145.79;74.38;77315.81;5322582;27;20470;-69
2023/08/20 07:41:39;;;;;;;6.35;3.95;;;;;;;-145.79;73.67;77300.97;5321973;28;20441;-69
2023/08/20 07:44:11;;;;;;;7.63;3.83;;;;;;;-145.79;72.48;77311.56;5321825;28;20035;-69
2023/08/20 07:46:42;;;;;;;6.75;4.30;;;;;;;-145.79;72.85;77300.97;5321008;28;20020;-69
2023/08/20 07:49:13;;;;;;;7.53;3.75;;;;;;;-145.79;72.78;77300.97;5330784;28;20027;-69
2023/08/20 07:51:45;;;;;;;7.93;4.03;;;;;;;-145.79;72.42;77300.97;5330947;28;20028;-69
2023/08/20 07:54:16;;;;;;;5.35;3.10;;;;;;;-145.79;71.61;77300.97;5328952;27;20066;-69
2023/08/20 07:56:47;;;;;;;5.65;3.78;;;;;;;-145.79;71.94;77296.72;5327753;28;20202;-69
2023/08/20 07:59:19;;;;;;;6.18;3.80;;;;;;;-145.79;71.68;77296.72;5327777;28;20034;-69
2023/08/20 08:01:50;;;;;;;8.13;5.15;;;;;;;-145.79;72.16;77292.50;5332398;27;20031;-68
2023/08/20 08:04:21;;;;;;;5.25;3.25;;;;;;;-145.79;70.82;77281.91;5329056;28;20024;-68
2023/08/20 08:06:53;;;;;;;4.75;3.60;;;;;;;-145.79;70.87;77271.28;5330497;28;20432;-68
2023/08/20 08:09:31;;;;;;;9.07;5.00;;;;;;;-145.79;69.19;77264.94;5332184;28;20118;-68
2023/08/20 08:12:03;;;;;;;10.10;4.53;;;;;;;-145.79;69.04;77271.28;5333143;27;20031;-68
2023/08/20 08:14:34;;;;;;;5.72;3.25;;;;;;;-145.79;69.12;77267.06;5327876;27;20024;-68
2023/08/20 08:17:06;;;;;;;9.73;4.60;;;;;;;-145.79;69.54;77264.94;5322382;28;20043;-68
2023/08/20 08:19:37;;;;;;;5.68;3.67;;;;;;;-145.79;69.25;77258.56;5326508;27;20034;-68
2023/08/20 08:22:08;;;;;;;11.07;9.82;;;;;;;-145.79;67.91;77254.34;5324614;28;20093;-69
2023/08/20 08:24:41;;;;;;;5.68;4.18;;;;;;;-145.79;67.90;77241.63;5328638;28;20038;-68
2023/08/20 08:27:13;;;;;;;7.20;3.60;;;;;;;-145.79;67.20;77239.50;5331058;27;20019;-68
2023/08/20 08:29:45;;;;;;;4.15;3.72;;;;;;;-145.79;67.18;77231.03;5328354;28;20042;-69
2023/08/20 08:32:16;;;;;;;5.80;3.70;;;;;;;-145.79;68.04;77218.31;5329720;28;20031;-68
2023/08/20 08:34:47;;;;;;;6.40;3.97;;;;;;;-145.79;67.38;77211.94;5309825;28;20055;-69
2023/08/20 08:37:19;;;;;;;5.40;3.20;;;;;;;-145.79;67.55;77207.72;5315276;28;20103;-69
2023/08/20 08:39:50;;;;;;;4.53;2.38;;;;;;;-145.79;67.26;77199.22;5317319;28;20028;-68
2023/08/20 08:42:23;;;;;;;4.30;2.75;;;;;;;-145.79;66.32;77192.88;5319482;28;20031;-69
2023/08/20 08:44:56;;;;;;;6.45;3.08;;;;;;;-145.79;65.57;77184.41;5316727;28;20028;-68
2023/08/20 08:47:28;;;;;;;5.47;3.03;;;;;;;-145.79;66.05;77175.91;5315162;28;20032;-68
2023/08/20 08:50:01;;;;;;;4.90;2.50;;;;;;;-145.79;63.65;77169.56;5315354;28;20036;-68
2023/08/20 08:52:36;;;;;;;4.38;2.00;;;;;;;-145.79;62.76;77163.19;5319105;28;20429;-68
2023/08/20 08:55:08;;;;;;;4.65;2.38;;;;;;;-145.79;62.34;77161.06;5312776;28;20046;-69
2023/08/20 08:57:40;;;;;;;6.68;2.60;;;;;;;-145.79;62.60;77148.34;5318629;28;20036;-67
2023/08/20 09:00:12;;;;;;;2.92;1.73;;;;;;;-145.79;59.25;77148.34;5316516;28;20078;-69
2023/08/20 09:02:43;;;;;;;4.30;1.90;;;;;;;-145.79;60.72;77131.41;5314660;28;20035;-68
2023/08/20 09:05:15;;;;;;;4.78;2.00;;;;;;;-145.79;60.03;77133.53;5316277;28;20024;-68
2023/08/20 09:07:46;;;;;;;3.45;1.73;;;;;;;-145.79;59.10;77127.16;5314878;28;20023;-69
2023/08/20 09:10:18;;;;;;;3.75;1.95;;;;;;;-145.79;59.79;77118.69;5316720;28;20110;-69
2023/08/20 09:12:49;;;;;;;3.47;1.60;;;;;;;-145.79;58.76;77099.63;5314624;28;20081;-69
2023/08/20 09:15:21;;;;;;;68.28;62.30;;;;;;;-145.79;58.95;77097.50;5316298;28;20035;-69
2023/08/20 09:17:52;;;;;;;3.30;2.00;;;;;;;-145.79;57.78;77091.13;5318408;28;20020;-69
2023/08/20 09:20:35;;;;;;;3.78;1.67;;;;;;;-145.79;57.62;77076.31;5317004;28;20111;-68
2023/08/20 09:23:13;;;;;;;3.67;1.77;;;;;;;-145.79;57.40;77078.41;5314039;28;20119;-69
2023/08/20 09:25:45;;;;;;;5.80;3.88;;;;;;;-145.79;57.50;77067.81;5309224;28;20024;-68
2023/08/20 09:28:16;;;;;;;2.88;1.50;;;;;;;-145.79;55.73;77067.81;5314274;28;20027;-68
2023/08/20 09:31:01;;;;;;;3.05;1.50;;;;;;;-145.79;56.79;77050.88;5317538;28;20539;-69
2023/08/20 09:33:32;;;;;;;2.42;1.75;;;;;;;-145.79;56.79;77042.38;5317200;28;20023;-69
2023/08/20 09:36:04;;;;;;;2.90;1.60;;;;;;;-145.79;56.85;77046.63;5313775;28;20046;-68
2023/08/20 09:38:39;;;;;;;5.15;1.85;;;;;;;-145.79;56.07;77021.19;5316437;28;20498;-68
2023/08/20 09:41:12;;;;;;;2.65;1.52;;;;;;;-145.79;54.87;77025.44;5312370;28;20027;-68
2023/08/20 09:43:45;;;;;;;3.55;1.50;;;;;;;-145.79;54.88;77025.44;5313579;28;20042;-68
2023/08/20 09:46:19;;;;;;;4.57;1.70;;;;;;;-145.79;53.61;76997.88;5312372;28;20028;-68
2023/08/20 09:48:59;;;;;;;5.68;2.58;;;;;;;-145.79;53.89;77002.13;5313249;28;20020;-67
2023/08/20 09:51:33;;;;;;;2.38;1.45;;;;;;;-145.79;53.99;76989.41;5317297;27;20096;-68
2023/08/20 09:54:25;;;;;;;2.35;1.20;;;;;;;-145.79;52.54;76968.22;5314364;28;20505;-67
2023/08/20 09:57:00;;;;;;;5.43;4.25;;;;;;;-145.79;52.68;76963.97;5304115;28;20032;-68
2023/08/20 09:59:32;;;;;;;1.83;1.30;;;;;;;-145.79;52.10;76968.22;5317006;28;20027;-68
2023/08/20 10:02:03;;;;;;;1.88;0.90;;;;;;;-145.79;49.95;76966.09;5310200;28;20028;-67
2023/08/20 10:04:35;;;;;;;2.33;1.35;;;;;;;-145.79;49.03;76966.09;5320259;28;20027;-68
2023/08/20 10:07:09;;;;;;;4.45;2.47;;;;;;;-145.79;50.52;76944.91;5313605;28;20506;-68
2023/08/20 10:09:45;;;;;;;3.35;1.13;;;;;;;-145.79;50.83;76934.28;5317687;28;20031;-68
2023/08/20 10:12:20;;;;;;;3.85;1.45;;;;;;;-145.79;51.08;76927.94;5316272;28;20028;-69
2023/08/20 10:14:51;;;;;;;3.47;1.60;;;;;;;-145.79;50.89;76932.19;5310431;28;20030;-69
2023/08/20 10:17:24;;;;;;;2.22;1.38;;;;;;;-145.79;51.22;76925.81;5312234;28;20020;-68
2023/08/20 10:19:58;;;;;;;2.90;1.05;;;;;;;-145.79;51.69;76919.47;5313731;28;20055;-67
2023/08/20 10:22:37;;;;;;;3.25;1.10;;;;;;;-145.79;50.97;76919.47;5302374;28;20049;-67
2023/08/20 10:25:11;;;;;;;2.35;1.63;;;;;;;-145.79;50.20;76919.47;5316710;28;20027;-67
2023/08/20 10:27:43;;;;;;;2.15;1.20;;;;;;;-145.79;49.35;76927.94;5314174;28;20054;-68
2023/08/20 10:30:21;;;;;;;2.50;1.13;;;;;;;-145.79;48.89;76936.41;5311969;28;20095;-68
2023/08/20 10:32:54;;;;;;;2.15;1.10;;;;;;;-145.79;48.88;76925.81;5304177;28;20032;-69
2023/08/20 10:35:47;;;;;;;2.13;1.40;;;;;;;-145.79;49.08;76894.03;5309296;28;20085;-69
2023/08/20 10:38:19;;;;;;;3.17;1.60;;;;;;;-145.79;48.48;76881.31;5307280;28;20387;-68
2023/08/20 10:40:53;;;;;;;1.55;1.23;;;;;;;-145.79;48.23;76885.56;5317226;28;20026;-68
2023/08/20 10:43:31;;;;;;;3.28;2.97;;;;;;;-145.79;48.39;76879.19;5301873;28;20043;-69
2023/08/20 10:46:22;;;;;;;2.72;0.95;;;;;;;-145.79;47.15;76874.94;5303876;28;20020;-69
2023/08/20 10:48:57;;;;;;;15.50;14.02;;;;;;;-145.79;47.56;76864.34;5309253;28;20109;-67
2023/08/20 10:51:34;;;;;;;3.55;2.53;;;;;;;-145.79;48.24;76847.41;5318263;28;20159;-69
2023/08/20 10:54:10;;;;;;;2.20;1.35;;;;;;;-145.79;46.85;76832.56;5308912;28;20068;-69
2023/08/20 10:56:48;;;;;;;5.13;2.15;;;;;;;-145.79;45.87;76836.81;5304705;28;20043;-68
2023/08/20 10:59:26;;;;;;;3.72;1.30;;;;;;;-145.79;45.64;76841.03;5321723;28;20034;-69
2023/08/20 11:01:58;;;;;;;2.92;1.00;;;;;;;-145.79;44.34;76828.31;5315945;28;20035;-69
2023/08/20 11:04:32;;;;;;;1.42;1.00;;;;;;;-145.79;45.01;76819.84;5317747;28;20028;-69
2023/08/20 11:07:04;;;;;;;3.00;1.33;;;;;;;-145.79;45.78;76807.13;5309732;28;20024;-69
2023/08/20 11:09:36;;;;;;;2.55;1.02;;;;;;;-145.79;45.35;76809.25;5304884;28;20549;-69
2023/08/20 11:12:07;;;;;;;2.25;1.30;;;;;;;-145.79;45.22;76796.53;5301587;28;20031;-68
2023/08/20 11:14:39;;;;;;;2.33;1.25;;;;;;;-145.79;44.43;76792.31;5313710;28;20391;-68
2023/08/20 11:17:10;;;;;;;3.35;1.33;;;;;;;-145.79;44.46;76773.22;5312815;28;20143;-68
2023/08/20 11:19:41;;;;;;;3.88;1.33;;;;;;;-145.79;44.68;76775.34;5308946;28;20106;-69
2023/08/20 11:22:15;;;;;;;1.65;1.02;;;;;;;-145.79;43.65;76764.75;5303121;28;20148;-67
2023/08/20 11:24:46;;;;;;;4.95;1.63;;;;;;;-145.79;43.29;76783.81;5304438;28;20047;-69
2023/08/20 11:27:18;;;;;;;3.17;1.33;;;;;;;-145.79;43.44;76766.88;5309515;28;20483;-69
2023/08/20 11:29:49;;;;;;;2.85;1.60;;;;;;;-145.79;43.12;76752.03;5312863;28;20417;-68
2023/08/20 11:32:20;;;;;;;2.38;1.23;;;;;;;-145.79;42.90;76737.19;5304852;28;20065;-68
2023/08/20 11:34:52;;;;;;;1.20;1.08;;;;;;;-145.79;43.12;76735.06;5313286;28;20051;-69
2023/08/20 11:37:23;;;;;;;2.42;1.10;;;;;;;-145.79;43.26;76730.84;5307754;28;20070;-69
2023/08/20 11:39:54;;;;;;;2.53;1.20;;;;;;;-145.79;43.10;76720.25;5308745;28;20024;-69
2023/08/20 11:42:26;;;;;;;4.28;1.23;;;;;;;-145.79;43.18;76728.72;5306361;28;20032;-67
2023/08/20 11:44:57;;;;;;;3.42;1.17;;;;;;;-145.79;43.50;76713.88;5314480;28;20355;-69
2023/08/20 11:47:29;;;;;;;4.95;3.88;;;;;;;-145.79;43.78;76735.06;5324450;28;20186;-66
2023/08/20 11:50:06;;;;;;;2.08;1.10;;;;;;;-145.79;45.07;76737.19;5312998;28;20089;-69
2023/08/20 11:52:41;;;;;;;3.28;1.20;;;;;;;-145.79;43.67;76728.72;5307144;28;20180;-70
2023/08/20 11:55:12;;;;;;;2.67;1.00;;;;;;;-145.79;43.62;76701.16;5315074;28;20026;-68
2023/08/20 11:57:50;;;;;;;2.78;0.98;;;;;;;-145.79;43.34;76658.78;5312917;28;20020;-69
2023/08/20 12:00:31;;;;;;;2.63;1.50;;;;;;;-145.79;43.55;76643.94;5303285;28;20383;-69
2023/08/20 12:03:03;;;;;;;4.28;1.65;;;;;;;-145.79;42.81;76646.06;5309844;28;20612;-68
2023/08/20 12:05:35;;;;;;;3.22;1.20;;;;;;;-145.79;42.91;76650.31;5311488;28;20054;-67
2023/08/20 12:08:06;;;;;;;2.53;1.30;;;;;;;-145.79;42.98;76629.13;5312499;28;20055;-67
2023/08/20 12:10:42;;;;;;;3.28;1.20;;;;;;;-145.79;42.98;76631.22;5313158;28;20108;-67
2023/08/20 12:13:13;;;;;;;3.28;1.33;;;;;;;-145.79;42.37;76627.00;5314285;28;20031;-66
2023/08/20 12:15:44;;;;;;;2.47;1.23;;;;;;;-145.79;42.90;76603.69;5310906;28;20032;-67
2023/08/20 12:18:16;;;;;;;4.03;1.45;;;;;;;-145.79;42.92;76584.59;5307847;28;20319;-69
2023/08/20 12:20:47;;;;;;;3.03;1.55;;;;;;;-145.79;42.39;76584.59;5315241;28;20543;-68
2023/08/20 12:23:19;;;;;;;3.90;2.05;;;;;;;-145.79;42.47;76567.66;5315309;28;20044;-69
2023/08/20 12:25:51;;;;;;;27.27;24.83;;;;;;;-145.79;43.06;76544.34;5315174;28;20483;-68
2023/08/20 12:28:22;;;;;;;3.47;1.60;;;;;;;-145.79;41.73;76546.47;5313438;28;20024;-68
2023/08/20 12:30:54;;;;;;;3.40;1.48;;;;;;;-145.79;41.71;76548.59;5316785;28;20028;-68
2023/08/20 12:33:25;;;;;;;3.22;1.40;;;;;;;-145.79;41.38;76546.47;5311110;28;20369;-67
2023/08/20 12:35:58;;;;;;;5.20;1.60;;;;;;;-145.79;41.67;76563.41;5312091;28;20024;-68
2023/08/20 12:38:33;;;;;;;5.38;1.60;;;;;;;-145.79;42.02;76546.47;5318756;28;20035;-68
2023/08/20 12:41:05;;;;;;;2.95;1.25;;;;;;;-145.79;41.88;76550.69;5306315;28;20047;-69
2023/08/20 12:43:37;;;;;;;6.72;1.63;;;;;;;-145.79;41.90;76567.66;5311924;28;20076;-69
2023/08/20 12:46:08;;;;;;;3.28;1.50;;;;;;;-145.79;41.97;76588.84;5319215;28;20024;-68
2023/08/20 12:48:40;;;;;;;4.10;1.75;;;;;;;-145.79;42.37;76601.56;5318110;27;20027;-67
2023/08/20 12:51:13;;;;;;;4.63;1.60;;;;;;;-145.79;42.59;76595.22;5314610;28;20442;-67
2023/08/20 12:53:45;;;;;;;2.65;1.25;;;;;;;-145.79;43.09;76605.81;5314465;28;20028;-67
2023/08/20 12:56:16;;;;;;;1.85;1.02;;;;;;;-145.79;42.57;76612.16;5318741;28;20485;-67
2023/08/20 12:58:47;;;;;;;2.38;1.40;;;;;;;-145.79;42.79;76635.47;5306375;27;20054;-68
2023/08/20 13:01:19;;;;;;;3.83;1.70;;;;;;;-145.79;43.36;76622.75;5305550;28;20093;-68
2023/08/20 13:03:50;;;;;;;5.45;1.45;;;;;;;-145.79;42.66;76601.56;5314208;28;20082;-67
2023/08/20 13:06:22;;;;;;;4.22;1.38;;;;;;;-145.79;43.45;76597.31;5309606;28;20036;-69
2023/08/20 13:08:53;;;;;;;1.80;0.98;;;;;;;-145.79;43.07;76593.09;5313034;28;20541;-68
2023/08/20 13:11:27;;;;;;;3.78;1.52;;;;;;;-145.79;42.34;76559.19;5314327;28;20084;-69
2023/08/20 13:13:59;;;;;;;4.00;1.30;;;;;;;-145.79;42.17;76548.59;5315940;28;20043;-67
2023/08/20 13:16:30;;;;;;;4.70;1.85;;;;;;;-145.79;42.11;76495.59;5313003;28;20450;-68
2023/08/20 13:19:02;;;;;;;20.95;18.83;;;;;;;-145.79;41.57;76487.13;5309875;28;20089;-68
2023/08/20 13:21:34;;;;;;;14.57;13.23;;;;;;;-145.79;42.19;76451.09;5312832;28;20036;-68
2023/08/20 13:24:06;;;;;;;4.72;2.17;;;;;;;-145.79;42.01;76453.22;5306361;28;20113;-69
2023/08/20 13:26:37;;;;;;;4.95;1.80;;;;;;;-145.79;41.17;76453.22;5314109;28;20032;-68
2023/08/20 13:29:08;;;;;;;2.75;1.30;;;;;;;-145.79;40.79;76423.56;5315586;28;20085;-69
2023/08/20 13:31:40;;;;;;;6.97;1.95;;;;;;;-145.79;40.98;76406.59;5313092;28;20061;-68
2023/08/20 13:34:11;;;;;;;2.00;1.30;;;;;;;-145.79;40.43;76406.59;5311520;28;20050;-67
2023/08/20 13:36:42;;;;;;;5.35;1.60;;;;;;;-145.79;41.11;76415.06;5312446;28;20024;-69
2023/08/20 13:39:14;;;;;;;3.55;1.27;;;;;;;-145.79;40.41;76393.88;5308796;28;20032;-68
2023/08/20 13:41:48;;;;;;;4.50;1.40;;;;;;;-145.79;40.24;76366.34;5310020;28;20089;-68
2023/08/20 13:44:20;;;;;;;4.20;1.55;;;;;;;-145.79;40.07;76370.56;5317792;28;20032;-69
2023/08/20 13:46:51;;;;;;;5.32;1.92;;;;;;;-145.79;40.20;76408.72;5315737;28;20073;-69
2023/08/20 13:49:23;;;;;;;4.07;1.63;;;;;;;-145.79;40.90;76404.47;5313572;28;20028;-69
2023/08/20 13:51:54;;;;;;;4.68;1.98;;;;;;;-145.79;40.23;76396.00;5315089;28;20032;-69
2023/08/20 13:54:26;;;;;;;4.07;1.60;;;;;;;-145.79;40.31;76393.88;5317157;28;20107;-69
2023/08/20 13:56:57;;;;;;;3.95;1.30;;;;;;;-145.79;40.88;76343.03;5314587;28;20049;-69
2023/08/20 13:59:28;;;;;;;4.00;1.65;;;;;;;-145.79;40.32;76330.31;5313084;28;20050;-68
2023/08/20 14:02:00;;;;;;;3.10;1.55;;;;;;;-145.79;39.28;76338.78;5313542;28;20036;-67
2023/08/20 14:04:31;;;;;;;3.88;1.23;;;;;;;-145.79;39.59;76355.75;5312260;28;20058;-67
2023/08/20 14:07:02;;;;;;;3.90;1.63;;;;;;;-145.79;39.47;76353.63;5322863;28;20040;-72
2023/08/20 14:09:35;;;;;;;3.92;1.23;;;;;;;-145.79;39.22;76332.44;5310352;28;20020;-70
2023/08/20 14:12:07;;;;;;;5.10;1.33;;;;;;;-145.79;39.08;76323.97;5311949;28;20383;-71
2023/08/20 14:14:38;;;;;;;3.63;2.83;;;;;;;-145.79;39.31;76281.56;5309760;28;20045;-71
2023/08/20 14:17:10;;;;;;;3.50;1.63;;;;;;;-145.79;38.83;76304.88;5312579;28;20379;-71
2023/08/20 14:19:41;;;;;;;57.38;52.22;;;;;;;-145.79;39.23;76311.25;5315560;28;20020;-71
2023/08/20 14:22:12;;;;;;;3.88;2.85;;;;;;;-145.79;39.27;76332.44;5314874;28;20065;-71
2023/08/20 14:24:44;;;;;;;3.92;1.52;;;;;;;-145.79;39.98;76336.66;5313165;28;20383;-69
2023/08/20 14:27:15;;;;;;;2.67;1.23;;;;;;;-145.79;39.95;76362.09;5310368;28;20020;-71
2023/08/20 14:29:46;;;;;;;4.18;1.63;;;;;;;-145.79;39.92;76387.53;5308146;28;20032;-71
2023/08/20 14:32:17;;;;;;;3.17;1.42;;;;;;;-145.79;40.25;76396.00;5303536;28;20055;-72
2023/08/20 14:34:49;;;;;;;4.47;1.75;;;;;;;-145.79;40.50;76412.97;5311401;28;20020;-71
2023/08/20 14:37:20;;;;;;;2.85;1.40;;;;;;;-145.79;40.82;76421.44;5310443;28;20149;-71
2023/08/20 14:39:51;;;;;;;3.38;1.42;;;;;;;-145.79;41.42;76429.91;5311339;28;20296;-71
2023/08/20 14:42:23;;;;;;;5.72;1.88;;;;;;;-145.79;41.37;76419.31;5313521;28;20036;-71
2023/08/20 14:44:54;;;;;;;3.33;1.40;;;;;;;-145.79;41.14;76427.78;5314100;28;20038;-70
2023/08/20 14:47:26;;;;;;;4.53;1.77;;;;;;;-145.79;41.18;76451.09;5314833;28;20027;-70
2023/08/20 14:49:57;;;;;;;2.88;1.40;;;;;;;-145.79;41.10;76461.69;5313866;28;20108;-70
2023/08/20 14:52:28;;;;;;;3.45;1.75;;;;;;;-145.79;41.67;76461.69;5312931;28;20024;-70
2023/08/20 14:55:00;;;;;;;3.85;2.10;;;;;;;-145.79;41.52;76470.19;5314494;28;20111;-70
2023/08/20 14:57:31;;;;;;;4.93;1.92;;;;;;;-145.79;41.36;76459.56;5315955;28;20099;-70
2023/08/20 15:00:07;;;;;;;3.13;1.58;;;;;;;-145.79;41.42;76468.06;5315115;28;20027;-69
2023/08/20 15:02:38;;;;;;;4.88;2.45;;;;;;;-145.79;41.71;76478.66;5310514;28;20039;-70
2023/08/20 15:05:12;;;;;;;2.70;1.92;;;;;;;-145.79;41.89;76482.88;5313730;28;20085;-72
2023/08/20 15:07:43;;;;;;;3.88;1.75;;;;;;;-145.79;41.91;76457.47;5312597;28;20020;-70
2023/08/20 15:10:14;;;;;;;4.18;2.05;;;;;;;-145.79;41.45;76485.00;5313260;28;20552;-70
2023/08/20 15:12:46;;;;;;;3.63;1.70;;;;;;;-145.79;41.85;76487.13;5316266;28;20459;-71
2023/08/20 15:15:17;;;;;;;5.95;2.10;;;;;;;-145.79;41.95;76489.25;5314924;28;20046;-71
2023/08/20 15:17:51;;;;;;;3.88;2.05;;;;;;;-145.79;42.01;76495.59;5311675;28;20094;-71
2023/08/20 15:20:22;;;;;;;4.43;1.60;;;;;;;-145.79;42.26;76512.56;5313306;28;20470;-70
2023/08/20 15:22:54;;;;;;;3.17;1.70;;;;;;;-145.79;42.31;76508.31;5307712;28;20052;-70
2023/08/20 15:25:25;;;;;;;6.05;2.13;;;;;;;-145.79;42.30;76508.31;5312253;28;20070;-71
2023/08/20 15:27:56;;;;;;;2.92;1.60;;;;;;;-145.79;42.43;76510.44;5316432;28;20534;-70
2023/08/20 15:30:27;;;;;;;3.92;1.48;;;;;;;-145.79;43.38;76521.03;5314490;28;20107;-70
2023/08/20 15:32:59;;;;;;;5.15;1.65;;;;;;;-145.79;43.60;76525.28;5311824;28;20454;-72
2023/08/20 15:35:30;;;;;;;3.75;1.85;;;;;;;-145.79;43.87;76516.78;5312172;28;20402;-71
2023/08/20 15:38:02;;;;;;;4.88;2.25;;;;;;;-145.79;43.96;76533.75;5303852;28;20111;-71
2023/08/20 15:40:33;;;;;;;4.35;1.40;;;;;;;-145.79;44.23;76527.38;5308148;28;20066;-71
2023/08/20 15:43:05;;;;;;;4.60;2.10;;;;;;;-145.79;44.29;76529.50;5316193;28;20091;-71
2023/08/20 15:45:36;;;;;;;5.43;1.40;;;;;;;-145.79;44.27;76529.50;5319743;28;20024;-71
2023/08/20 15:48:08;;;;;;;5.15;2.33;;;;;;;-145.79;44.75;76533.75;5315934;28;20127;-70
2023/08/20 15:50:39;;;;;;;2.15;1.40;;;;;;;-145.79;44.75;76533.75;5315904;28;20047;-71
2023/08/20 15:53:10;;;;;;;4.15;2.25;;;;;;;-145.79;45.14;76529.50;5319313;28;20027;-70
2023/08/20 15:55:42;;;;;;;2.42;1.33;;;;;;;-145.79;44.89;76529.50;5318217;28;20046;-69
2023/08/20 15:58:13;;;;;;;4.43;1.90;;;;;;;-145.79;45.02;76518.91;5316930;28;20048;-71
2023/08/20 16:00:45;;;;;;;6.88;2.40;;;;;;;-145.79;45.16;76518.91;5315183;28;20066;-70
2023/08/20 16:03:16;;;;;;;3.45;1.75;;;;;;;-145.79;45.03;76516.78;5319057;28;20024;-70
2023/08/20 16:05:47;;;;;;;2.78;1.65;;;;;;;-145.79;45.06;76499.84;5319642;28;20124;-71
2023/08/20 16:08:19;;;;;;;4.88;1.80;;;;;;;-145.79;45.00;76497.72;5316691;28;20039;-72
2023/08/20 16:10:50;;;;;;;5.13;2.33;;;;;;;-145.79;45.52;76514.69;5315779;28;20466;-70
2023/08/20 16:13:22;;;;;;;3.70;1.73;;;;;;;-145.79;45.14;76512.56;5314846;28;20079;-70
2023/08/20 16:15:56;;;;;;;3.58;1.58;;;;;;;-145.79;44.45;76518.91;5315716;28;20028;-71
2023/08/20 16:18:27;;;;;;;5.50;1.67;;;;;;;-145.79;44.80;76514.69;5318025;28;20036;-70
2023/08/20 16:20:59;;;;;;;3.30;1.50;;;;;;;-145.79;44.59;76516.78;5319602;28;20031;-70
2023/08/20 16:23:30;;;;;;;3.00;1.60;;;;;;;-145.79;44.60;76512.56;5316798;28;20055;-71
2023/08/20 16:26:03;;;;;;;3.90;2.03;;;;;;;-145.79;44.30;76518.91;5315647;28;20055;-70
2023/08/20 16:28:35;;;;;;;4.28;1.75;;;;;;;-145.79;44.45;76531.63;5315671;28;20028;-70
2023/08/20 16:31:09;;;;;;;2.83;1.45;;;;;;;-145.79;44.84;76523.16;5309234;28;20035;-70
2023/08/20 16:33:40;;;;;;;3.33;1.70;;;;;;;-145.79;45.17;76516.78;5317284;28;20035;-71
2023/08/20 16:36:12;;;;;;;4.30;1.70;;;;;;;-145.79;45.34;76508.31;5314341;28;20012;-69
2023/08/20 16:38:43;;;;;;;3.70;1.48;;;;;;;-145.79;45.92;76489.25;5313018;28;20387;-70
2023/08/20 16:41:14;;;;;;;3.22;1.90;;;;;;;-145.79;46.02;76487.13;5314646;28;20436;-70
2023/08/20 16:43:46;;;;;;;3.13;1.40;;;;;;;-145.79;44.89;76501.97;5315890;28;20031;-69
2023/08/20 16:46:17;;;;;;;3.97;1.60;;;;;;;-145.79;45.11;76482.88;5318430;28;20024;-69
2023/08/20 16:48:48;;;;;;;3.85;1.90;;;;;;;-145.79;45.62;76491.38;5305212;28;20019;-70
2023/08/20 16:51:20;;;;;;;3.60;1.92;;;;;;;-145.79;45.62;76478.66;5320362;28;20035;-68
2023/08/20 16:53:51;;;;;;;3.25;1.38;;;;;;;-145.79;45.36;76472.28;5315303;28;20372;-66
